Terminal Aerodrome Forecast
Issued by NWS

Home | Current Version | Previous Version | Text Only | Print | Product List | Glossary On
Versions: 1 2 3 4 5 6 7 8 9 10 11 12 13 14 15 16 17 18 19 20 21 22
000
FTUS43 KABR 250500
TAFATY
TAF
KATY 250537Z 2506/2606 20007KT P6SM OVC050
     FM251500 02006KT P6SM -SN OVC015
     FM252000 01015KT P6SM OVC015=

USA.gov is the U.S. government's official web portal to all federal, state and local government web resources and services.